sensor_id;sensor_type;location;lat;lon;timestamp;P1;durP1;ratioP1;P2;durP2;ratioP2
37051;SDS011;22964;52.272;13.356;2022-07-06T00:01:31;2.33;;;0.70;;
37051;SDS011;22964;52.272;13.356;2022-07-06T00:03:57;1.02;;;0.80;;
37051;SDS011;22964;52.272;13.356;2022-07-06T00:06:23;1.45;;;0.93;;
37051;SDS011;22964;52.272;13.356;2022-07-06T00:08:49;1.60;;;0.70;;
37051;SDS011;22964;52.272;13.356;2022-07-06T00:11:15;1.30;;;0.73;;
37051;SDS011;22964;52.272;13.356;2022-07-06T00:13:41;2.15;;;1.05;;
37051;SDS011;22964;52.272;13.356;2022-07-06T00:16:07;1.92;;;0.70;;
37051;SDS011;22964;52.272;13.356;2022-07-06T00:18:33;1.63;;;0.77;;
37051;SDS011;22964;52.272;13.356;2022-07-06T00:20:59;1.00;;;0.80;;
37051;SDS011;22964;52.272;13.356;2022-07-06T00:23:24;1.83;;;0.90;;
37051;SDS011;22964;52.272;13.356;2022-07-06T00:25:50;1.67;;;0.80;;
37051;SDS011;22964;52.272;13.356;2022-07-06T00:28:16;2.15;;;0.90;;
37051;SDS011;22964;52.272;13.356;2022-07-06T00:30:42;0.80;;;0.70;;
37051;SDS011;22964;52.272;13.356;2022-07-06T00:33:07;2.00;;;0.80;;
37051;SDS011;22964;52.272;13.356;2022-07-06T00:35:33;1.45;;;0.90;;
37051;SDS011;22964;52.272;13.356;2022-07-06T00:37:59;2.08;;;0.82;;
37051;SDS011;22964;52.272;13.356;2022-07-06T00:40:25;1.10;;;0.90;;
37051;SDS011;22964;52.272;13.356;2022-07-06T00:42:51;1.10;;;0.75;;
37051;SDS011;22964;52.272;13.356;2022-07-06T00:45:18;1.83;;;0.90;;
37051;SDS011;22964;52.272;13.356;2022-07-06T00:47:44;1.60;;;0.90;;
37051;SDS011;22964;52.272;13.356;2022-07-06T00:50:11;1.00;;;0.70;;
37051;SDS011;22964;52.272;13.356;2022-07-06T00:52:50;1.35;;;0.90;;
37051;SDS011;22964;52.272;13.356;2022-07-06T00:55:19;1.50;;;0.70;;
37051;SDS011;22964;52.272;13.356;2022-07-06T00:57:50;1.98;;;0.70;;
37051;SDS011;22964;52.272;13.356;2022-07-06T01:00:17;3.42;;;0.80;;
37051;SDS011;22964;52.272;13.356;2022-07-06T01:02:44;2.03;;;0.80;;
37051;SDS011;22964;52.272;13.356;2022-07-06T01:05:11;2.38;;;0.90;;
37051;SDS011;22964;52.272;13.356;2022-07-06T01:07:39;2.30;;;0.80;;
37051;SDS011;22964;52.272;13.356;2022-07-06T01:10:06;1.67;;;0.80;;
37051;SDS011;22964;52.272;13.356;2022-07-06T01:12:34;1.27;;;0.90;;
37051;SDS011;22964;52.272;13.356;2022-07-06T01:15:05;1.10;;;0.70;;
37051;SDS011;22964;52.272;13.356;2022-07-06T01:17:35;1.65;;;0.85;;
37051;SDS011;22964;52.272;13.356;2022-07-06T01:20:15;1.40;;;0.75;;
37051;SDS011;22964;52.272;13.356;2022-07-06T01:22:49;2.90;;;0.80;;
37051;SDS011;22964;52.272;13.356;2022-07-06T01:25:17;2.22;;;0.82;;
37051;SDS011;22964;52.272;13.356;2022-07-06T01:27:44;2.83;;;0.80;;
37051;SDS011;22964;52.272;13.356;2022-07-06T01:30:11;1.88;;;0.88;;
37051;SDS011;22964;52.272;13.356;2022-07-06T01:32:38;1.25;;;0.70;;
37051;SDS011;22964;52.272;13.356;2022-07-06T01:35:05;1.02;;;0.70;;
37051;SDS011;22964;52.272;13.356;2022-07-06T01:37:32;1.73;;;0.73;;
37051;SDS011;22964;52.272;13.356;2022-07-06T01:39:58;1.45;;;0.85;;
37051;SDS011;22964;52.272;13.356;2022-07-06T01:42:25;1.33;;;0.60;;
37051;SDS011;22964;52.272;13.356;2022-07-06T01:44:51;1.55;;;0.80;;
37051;SDS011;22964;52.272;13.356;2022-07-06T01:47:17;2.13;;;0.88;;
37051;SDS011;22964;52.272;13.356;2022-07-06T01:49:43;2.65;;;0.82;;
37051;SDS011;22964;52.272;13.356;2022-07-06T01:52:09;3.03;;;0.90;;
37051;SDS011;22964;52.272;13.356;2022-07-06T01:54:35;2.50;;;0.80;;
37051;SDS011;22964;52.272;13.356;2022-07-06T01:57:01;3.88;;;0.90;;
37051;SDS011;22964;52.272;13.356;2022-07-06T01:59:26;3.28;;;0.70;;
37051;SDS011;22964;52.272;13.356;2022-07-06T02:01:52;2.05;;;0.93;;
37051;SDS011;22964;52.272;13.356;2022-07-06T02:04:18;1.17;;;0.90;;
37051;SDS011;22964;52.272;13.356;2022-07-06T02:06:44;2.95;;;0.90;;
37051;SDS011;22964;52.272;13.356;2022-07-06T02:09:11;2.42;;;0.80;;
37051;SDS011;22964;52.272;13.356;2022-07-06T02:11:37;1.73;;;0.80;;
37051;SDS011;22964;52.272;13.356;2022-07-06T02:14:02;3.40;;;1.00;;
37051;SDS011;22964;52.272;13.356;2022-07-06T02:16:28;2.17;;;0.90;;
37051;SDS011;22964;52.272;13.356;2022-07-06T02:18:55;1.70;;;1.00;;
37051;SDS011;22964;52.272;13.356;2022-07-06T02:21:21;1.77;;;0.80;;
37051;SDS011;22964;52.272;13.356;2022-07-06T02:23:47;3.67;;;0.90;;
37051;SDS011;22964;52.272;13.356;2022-07-06T02:26:13;2.28;;;1.00;;
37051;SDS011;22964;52.272;13.356;2022-07-06T02:28:38;2.05;;;0.90;;
37051;SDS011;22964;52.272;13.356;2022-07-06T02:31:05;1.70;;;0.85;;
37051;SDS011;22964;52.272;13.356;2022-07-06T02:33:31;3.10;;;0.88;;
37051;SDS011;22964;52.272;13.356;2022-07-06T02:35:57;2.03;;;1.00;;
37051;SDS011;22964;52.272;13.356;2022-07-06T02:38:23;1.75;;;0.88;;
37051;SDS011;22964;52.272;13.356;2022-07-06T02:40:49;2.33;;;0.90;;
37051;SDS011;22964;52.272;13.356;2022-07-06T02:43:16;1.80;;;0.90;;
37051;SDS011;22964;52.272;13.356;2022-07-06T02:45:41;1.60;;;0.85;;
37051;SDS011;22964;52.272;13.356;2022-07-06T02:48:09;1.08;;;0.80;;
37051;SDS011;22964;52.272;13.356;2022-07-06T02:50:35;2.92;;;1.00;;
37051;SDS011;22964;52.272;13.356;2022-07-06T02:53:00;2.25;;;0.90;;
37051;SDS011;22964;52.272;13.356;2022-07-06T02:55:27;2.50;;;1.10;;
37051;SDS011;22964;52.272;13.356;2022-07-06T02:57:53;1.88;;;0.90;;
37051;SDS011;22964;52.272;13.356;2022-07-06T03:00:20;1.75;;;0.90;;
37051;SDS011;22964;52.272;13.356;2022-07-06T03:02:46;1.35;;;0.80;;
37051;SDS011;22964;52.272;13.356;2022-07-06T03:05:12;5.22;;;1.23;;
37051;SDS011;22964;52.272;13.356;2022-07-06T03:07:38;1.77;;;0.85;;
37051;SDS011;22964;52.272;13.356;2022-07-06T03:10:05;2.70;;;1.00;;
37051;SDS011;22964;52.272;13.356;2022-07-06T03:12:31;2.35;;;1.00;;
37051;SDS011;22964;52.272;13.356;2022-07-06T03:14:57;1.52;;;0.88;;
37051;SDS011;22964;52.272;13.356;2022-07-06T03:17:23;1.63;;;0.90;;
37051;SDS011;22964;52.272;13.356;2022-07-06T03:19:50;2.45;;;1.00;;
37051;SDS011;22964;52.272;13.356;2022-07-06T03:22:17;4.78;;;0.98;;
37051;SDS011;22964;52.272;13.356;2022-07-06T03:24:44;2.90;;;1.00;;
37051;SDS011;22964;52.272;13.356;2022-07-06T03:27:09;3.70;;;1.05;;
37051;SDS011;22964;52.272;13.356;2022-07-06T03:29:35;1.50;;;1.00;;
37051;SDS011;22964;52.272;13.356;2022-07-06T03:32:02;1.63;;;0.93;;
37051;SDS011;22964;52.272;13.356;2022-07-06T03:34:29;2.53;;;1.10;;
37051;SDS011;22964;52.272;13.356;2022-07-06T03:36:55;2.22;;;1.20;;
37051;SDS011;22964;52.272;13.356;2022-07-06T03:39:21;5.93;;;1.10;;
37051;SDS011;22964;52.272;13.356;2022-07-06T03:41:48;2.40;;;0.90;;
37051;SDS011;22964;52.272;13.356;2022-07-06T03:44:14;2.28;;;0.90;;
37051;SDS011;22964;52.272;13.356;2022-07-06T03:46:40;2.42;;;1.08;;
37051;SDS011;22964;52.272;13.356;2022-07-06T03:49:06;2.20;;;0.93;;
37051;SDS011;22964;52.272;13.356;2022-07-06T03:51:32;2.55;;;1.10;;
37051;SDS011;22964;52.272;13.356;2022-07-06T03:53:58;2.45;;;1.10;;
37051;SDS011;22964;52.272;13.356;2022-07-06T03:56:23;3.20;;;1.30;;
37051;SDS011;22964;52.272;13.356;2022-07-06T03:59:02;2.72;;;1.30;;
37051;SDS011;22964;52.272;13.356;2022-07-06T04:01:31;3.08;;;1.00;;
37051;SDS011;22964;52.272;13.356;2022-07-06T04:03:58;6.40;;;1.35;;
37051;SDS011;22964;52.272;13.356;2022-07-06T04:06:24;2.47;;;1.10;;
37051;SDS011;22964;52.272;13.356;2022-07-06T04:08:51;2.90;;;1.00;;
37051;SDS011;22964;52.272;13.356;2022-07-06T04:11:18;2.13;;;0.90;;
37051;SDS011;22964;52.272;13.356;2022-07-06T04:13:44;2.63;;;0.98;;
37051;SDS011;22964;52.272;13.356;2022-07-06T04:16:11;1.38;;;0.80;;
37051;SDS011;22964;52.272;13.356;2022-07-06T04:18:37;2.55;;;1.08;;
37051;SDS011;22964;52.272;13.356;2022-07-06T04:21:04;2.45;;;1.00;;
37051;SDS011;22964;52.272;13.356;2022-07-06T04:23:33;1.33;;;0.90;;
37051;SDS011;22964;52.272;13.356;2022-07-06T04:26:00;4.22;;;1.10;;
37051;SDS011;22964;52.272;13.356;2022-07-06T04:28:29;2.78;;;1.08;;
37051;SDS011;22964;52.272;13.356;2022-07-06T04:30:55;2.25;;;1.00;;
37051;SDS011;22964;52.272;13.356;2022-07-06T04:33:23;2.47;;;1.08;;
37051;SDS011;22964;52.272;13.356;2022-07-06T04:35:50;3.05;;;0.85;;
37051;SDS011;22964;52.272;13.356;2022-07-06T04:38:16;1.90;;;1.00;;
37051;SDS011;22964;52.272;13.356;2022-07-06T04:40:44;5.47;;;1.20;;
37051;SDS011;22964;52.272;13.356;2022-07-06T04:43:15;4.97;;;1.00;;
37051;SDS011;22964;52.272;13.356;2022-07-06T04:45:41;5.82;;;1.10;;
37051;SDS011;22964;52.272;13.356;2022-07-06T04:48:07;2.60;;;1.00;;
37051;SDS011;22964;52.272;13.356;2022-07-06T04:50:34;2.22;;;1.10;;
37051;SDS011;22964;52.272;13.356;2022-07-06T04:53:03;3.10;;;1.10;;
37051;SDS011;22964;52.272;13.356;2022-07-06T04:55:30;3.47;;;1.30;;
37051;SDS011;22964;52.272;13.356;2022-07-06T04:57:57;2.85;;;1.08;;
37051;SDS011;22964;52.272;13.356;2022-07-06T05:00:22;6.43;;;1.15;;
37051;SDS011;22964;52.272;13.356;2022-07-06T05:02:49;3.92;;;1.25;;
37051;SDS011;22964;52.272;13.356;2022-07-06T05:05:16;2.55;;;1.10;;
37051;SDS011;22964;52.272;13.356;2022-07-06T05:07:42;4.47;;;1.00;;
37051;SDS011;22964;52.272;13.356;2022-07-06T05:10:10;2.60;;;1.00;;
37051;SDS011;22964;52.272;13.356;2022-07-06T05:12:39;3.15;;;1.00;;
37051;SDS011;22964;52.272;13.356;2022-07-06T05:15:05;4.43;;;1.20;;
37051;SDS011;22964;52.272;13.356;2022-07-06T05:17:33;3.40;;;1.10;;
37051;SDS011;22964;52.272;13.356;2022-07-06T05:20:00;2.30;;;1.10;;
37051;SDS011;22964;52.272;13.356;2022-07-06T05:22:29;8.32;;;1.30;;
37051;SDS011;22964;52.272;13.356;2022-07-06T05:24:55;3.22;;;0.98;;
37051;SDS011;22964;52.272;13.356;2022-07-06T05:27:21;1.45;;;0.70;;
37051;SDS011;22964;52.272;13.356;2022-07-06T05:29:47;4.00;;;1.10;;
37051;SDS011;22964;52.272;13.356;2022-07-06T05:32:14;3.70;;;1.20;;
37051;SDS011;22964;52.272;13.356;2022-07-06T05:34:40;2.03;;;0.80;;
37051;SDS011;22964;52.272;13.356;2022-07-06T05:37:05;2.60;;;1.17;;
37051;SDS011;22964;52.272;13.356;2022-07-06T05:39:33;3.58;;;0.88;;
37051;SDS011;22964;52.272;13.356;2022-07-06T05:41:58;1.77;;;1.00;;
37051;SDS011;22964;52.272;13.356;2022-07-06T05:44:24;2.72;;;0.80;;
37051;SDS011;22964;52.272;13.356;2022-07-06T05:46:50;2.85;;;1.10;;
37051;SDS011;22964;52.272;13.356;2022-07-06T05:49:17;2.33;;;0.90;;
37051;SDS011;22964;52.272;13.356;2022-07-06T05:52:01;2.33;;;0.95;;
37051;SDS011;22964;52.272;13.356;2022-07-06T05:54:27;2.78;;;0.98;;
37051;SDS011;22964;52.272;13.356;2022-07-06T05:56:53;2.20;;;1.00;;
37051;SDS011;22964;52.272;13.356;2022-07-06T05:59:20;2.28;;;0.80;;
37051;SDS011;22964;52.272;13.356;2022-07-06T06:01:45;3.60;;;0.85;;
37051;SDS011;22964;52.272;13.356;2022-07-06T06:04:15;2.30;;;0.98;;
37051;SDS011;22964;52.272;13.356;2022-07-06T06:06:41;2.30;;;0.95;;
37051;SDS011;22964;52.272;13.356;2022-07-06T06:09:08;3.13;;;0.80;;
37051;SDS011;22964;52.272;13.356;2022-07-06T06:11:34;2.45;;;0.70;;
37051;SDS011;22964;52.272;13.356;2022-07-06T06:13:59;2.15;;;0.73;;
37051;SDS011;22964;52.272;13.356;2022-07-06T06:16:26;2.38;;;0.93;;
37051;SDS011;22964;52.272;13.356;2022-07-06T06:18:51;1.48;;;0.80;;
37051;SDS011;22964;52.272;13.356;2022-07-06T06:21:17;2.85;;;0.93;;
37051;SDS011;22964;52.272;13.356;2022-07-06T06:23:43;2.97;;;0.90;;
37051;SDS011;22964;52.272;13.356;2022-07-06T06:26:08;2.75;;;1.00;;
37051;SDS011;22964;52.272;13.356;2022-07-06T06:28:34;2.42;;;0.68;;
37051;SDS011;22964;52.272;13.356;2022-07-06T06:31:01;2.72;;;1.00;;
37051;SDS011;22964;52.272;13.356;2022-07-06T06:33:27;2.55;;;0.93;;
37051;SDS011;22964;52.272;13.356;2022-07-06T06:35:53;3.58;;;1.08;;
37051;SDS011;22964;52.272;13.356;2022-07-06T06:38:19;2.15;;;1.00;;
37051;SDS011;22964;52.272;13.356;2022-07-06T06:40:46;2.60;;;0.90;;
37051;SDS011;22964;52.272;13.356;2022-07-06T06:43:12;1.42;;;0.60;;
37051;SDS011;22964;52.272;13.356;2022-07-06T06:45:50;1.40;;;0.70;;
37051;SDS011;22964;52.272;13.356;2022-07-06T06:48:16;2.85;;;0.70;;
37051;SDS011;22964;52.272;13.356;2022-07-06T06:50:42;1.70;;;0.90;;
37051;SDS011;22964;52.272;13.356;2022-07-06T06:53:09;2.38;;;0.90;;
37051;SDS011;22964;52.272;13.356;2022-07-06T06:55:34;1.98;;;0.80;;
37051;SDS011;22964;52.272;13.356;2022-07-06T06:58:00;1.48;;;0.77;;
37051;SDS011;22964;52.272;13.356;2022-07-06T07:00:26;1.48;;;0.80;;
37051;SDS011;22964;52.272;13.356;2022-07-06T07:02:51;2.28;;;0.80;;
37051;SDS011;22964;52.272;13.356;2022-07-06T07:05:17;1.77;;;0.85;;
37051;SDS011;22964;52.272;13.356;2022-07-06T07:07:43;3.10;;;0.90;;
37051;SDS011;22964;52.272;13.356;2022-07-06T07:10:09;2.00;;;0.80;;
37051;SDS011;22964;52.272;13.356;2022-07-06T07:12:35;1.35;;;0.60;;
37051;SDS011;22964;52.272;13.356;2022-07-06T07:15:06;2.45;;;0.70;;
37051;SDS011;22964;52.272;13.356;2022-07-06T07:17:32;1.95;;;0.98;;
37051;SDS011;22964;52.272;13.356;2022-07-06T07:19:58;2.78;;;1.25;;
37051;SDS011;22964;52.272;13.356;2022-07-06T07:22:24;3.92;;;1.08;;
37051;SDS011;22964;52.272;13.356;2022-07-06T07:24:49;2.20;;;0.90;;
37051;SDS011;22964;52.272;13.356;2022-07-06T07:27:15;1.98;;;0.77;;
37051;SDS011;22964;52.272;13.356;2022-07-06T07:29:41;2.83;;;0.80;;
37051;SDS011;22964;52.272;13.356;2022-07-06T07:32:06;2.95;;;0.80;;
37051;SDS011;22964;52.272;13.356;2022-07-06T07:34:32;1.90;;;0.77;;
37051;SDS011;22964;52.272;13.356;2022-07-06T07:36:58;4.35;;;0.98;;
37051;SDS011;22964;52.272;13.356;2022-07-06T07:39:23;2.53;;;0.90;;
37051;SDS011;22964;52.272;13.356;2022-07-06T07:41:49;2.25;;;0.90;;
37051;SDS011;22964;52.272;13.356;2022-07-06T07:44:17;2.67;;;0.98;;
37051;SDS011;22964;52.272;13.356;2022-07-06T07:46:43;1.83;;;0.80;;
37051;SDS011;22964;52.272;13.356;2022-07-06T07:49:09;2.10;;;0.98;;
37051;SDS011;22964;52.272;13.356;2022-07-06T07:51:36;2.47;;;0.90;;
37051;SDS011;22964;52.272;13.356;2022-07-06T07:54:02;1.30;;;0.57;;
37051;SDS011;22964;52.272;13.356;2022-07-06T07:56:27;1.85;;;0.80;;
37051;SDS011;22964;52.272;13.356;2022-07-06T07:58:53;2.30;;;0.90;;
37051;SDS011;22964;52.272;13.356;2022-07-06T08:01:24;1.75;;;0.80;;
37051;SDS011;22964;52.272;13.356;2022-07-06T08:03:50;2.25;;;0.80;;
37051;SDS011;22964;52.272;13.356;2022-07-06T08:06:15;2.08;;;0.70;;
37051;SDS011;22964;52.272;13.356;2022-07-06T08:08:41;2.40;;;0.70;;
37051;SDS011;22964;52.272;13.356;2022-07-06T08:11:07;3.20;;;0.70;;
37051;SDS011;22964;52.272;13.356;2022-07-06T08:13:33;2.55;;;0.82;;
37051;SDS011;22964;52.272;13.356;2022-07-06T08:15:58;3.28;;;0.70;;
37051;SDS011;22964;52.272;13.356;2022-07-06T08:18:25;2.15;;;0.80;;
37051;SDS011;22964;52.272;13.356;2022-07-06T08:20:50;2.35;;;0.70;;
37051;SDS011;22964;52.272;13.356;2022-07-06T08:23:16;1.70;;;0.55;;
37051;SDS011;22964;52.272;13.356;2022-07-06T08:25:42;4.28;;;0.90;;
37051;SDS011;22964;52.272;13.356;2022-07-06T08:28:07;1.98;;;0.90;;
37051;SDS011;22964;52.272;13.356;2022-07-06T08:30:33;1.67;;;0.65;;
37051;SDS011;22964;52.272;13.356;2022-07-06T08:33:00;1.92;;;0.82;;
37051;SDS011;22964;52.272;13.356;2022-07-06T08:35:26;6.70;;;1.00;;
37051;SDS011;22964;52.272;13.356;2022-07-06T08:37:52;2.85;;;0.70;;
37051;SDS011;22964;52.272;13.356;2022-07-06T08:40:17;3.63;;;0.73;;
37051;SDS011;22964;52.272;13.356;2022-07-06T08:42:43;1.80;;;0.60;;
37051;SDS011;22964;52.272;13.356;2022-07-06T08:45:10;2.47;;;0.68;;
37051;SDS011;22964;52.272;13.356;2022-07-06T08:47:37;1.85;;;0.75;;
37051;SDS011;22964;52.272;13.356;2022-07-06T08:50:04;2.10;;;0.70;;
37051;SDS011;22964;52.272;13.356;2022-07-06T08:52:30;2.33;;;0.70;;
37051;SDS011;22964;52.272;13.356;2022-07-06T08:54:56;4.15;;;1.00;;
37051;SDS011;22964;52.272;13.356;2022-07-06T08:57:22;3.00;;;0.70;;
37051;SDS011;22964;52.272;13.356;2022-07-06T08:59:49;0.93;;;0.40;;
37051;SDS011;22964;52.272;13.356;2022-07-06T09:02:15;1.02;;;0.60;;
37051;SDS011;22964;52.272;13.356;2022-07-06T09:04:42;0.77;;;0.50;;
37051;SDS011;22964;52.272;13.356;2022-07-06T09:07:08;3.58;;;0.80;;
37051;SDS011;22964;52.272;13.356;2022-07-06T09:09:34;12.98;;;0.70;;
37051;SDS011;22964;52.272;13.356;2022-07-06T09:12:01;1.05;;;0.50;;
37051;SDS011;22964;52.272;13.356;2022-07-06T09:14:28;1.02;;;0.60;;
37051;SDS011;22964;52.272;13.356;2022-07-06T09:17:04;1.67;;;0.50;;
37051;SDS011;22964;52.272;13.356;2022-07-06T09:19:31;2.55;;;0.73;;
37051;SDS011;22964;52.272;13.356;2022-07-06T09:21:59;1.38;;;0.57;;
37051;SDS011;22964;52.272;13.356;2022-07-06T09:24:25;0.80;;;0.60;;
37051;SDS011;22964;52.272;13.356;2022-07-06T09:26:53;1.15;;;0.55;;
37051;SDS011;22964;52.272;13.356;2022-07-06T09:29:27;1.90;;;0.60;;
37051;SDS011;22964;52.272;13.356;2022-07-06T09:32:01;3.70;;;0.68;;
37051;SDS011;22964;52.272;13.356;2022-07-06T09:34:42;2.38;;;0.90;;
37051;SDS011;22964;52.272;13.356;2022-07-06T09:37:09;2.35;;;0.75;;
37051;SDS011;22964;52.272;13.356;2022-07-06T09:39:36;1.52;;;0.60;;
37051;SDS011;22964;52.272;13.356;2022-07-06T09:42:03;1.45;;;0.70;;
37051;SDS011;22964;52.272;13.356;2022-07-06T09:44:38;2.60;;;0.70;;
37051;SDS011;22964;52.272;13.356;2022-07-06T09:47:06;1.92;;;0.65;;
37051;SDS011;22964;52.272;13.356;2022-07-06T09:49:34;2.72;;;0.68;;
37051;SDS011;22964;52.272;13.356;2022-07-06T09:52:05;1.83;;;0.60;;
37051;SDS011;22964;52.272;13.356;2022-07-06T09:54:33;1.48;;;0.70;;
37051;SDS011;22964;52.272;13.356;2022-07-06T09:57:00;2.85;;;0.70;;
37051;SDS011;22964;52.272;13.356;2022-07-06T09:59:27;2.60;;;0.50;;
37051;SDS011;22964;52.272;13.356;2022-07-06T10:01:55;1.00;;;0.50;;
37051;SDS011;22964;52.272;13.356;2022-07-06T10:04:26;1.40;;;0.57;;
37051;SDS011;22964;52.272;13.356;2022-07-06T10:06:53;0.82;;;0.60;;
37051;SDS011;22964;52.272;13.356;2022-07-06T10:09:20;5.38;;;0.75;;
37051;SDS011;22964;52.272;13.356;2022-07-06T10:14:18;4.55;;;0.70;;
37051;SDS011;22964;52.272;13.356;2022-07-06T10:16:48;1.57;;;0.53;;
37051;SDS011;22964;52.272;13.356;2022-07-06T10:19:15;1.63;;;0.52;;
37051;SDS011;22964;52.272;13.356;2022-07-06T10:21:43;1.73;;;0.60;;
37051;SDS011;22964;52.272;13.356;2022-07-06T10:24:09;1.52;;;0.60;;
37051;SDS011;22964;52.272;13.356;2022-07-06T10:26:37;1.55;;;0.60;;
37051;SDS011;22964;52.272;13.356;2022-07-06T10:29:04;1.83;;;0.63;;
37051;SDS011;22964;52.272;13.356;2022-07-06T10:31:31;3.72;;;0.40;;
37051;SDS011;22964;52.272;13.356;2022-07-06T10:34:00;2.30;;;0.47;;
37051;SDS011;22964;52.272;13.356;2022-07-06T10:36:27;1.85;;;0.88;;
37051;SDS011;22964;52.272;13.356;2022-07-06T10:38:53;2.08;;;0.52;;
37051;SDS011;22964;52.272;13.356;2022-07-06T10:41:33;0.45;;;0.40;;
37051;SDS011;22964;52.272;13.356;2022-07-06T10:44:17;2.15;;;0.60;;
37051;SDS011;22964;52.272;13.356;2022-07-06T10:46:51;1.02;;;0.52;;
37051;SDS011;22964;52.272;13.356;2022-07-06T10:49:18;1.33;;;0.40;;
37051;SDS011;22964;52.272;13.356;2022-07-06T10:51:44;3.10;;;0.55;;
37051;SDS011;22964;52.272;13.356;2022-07-06T10:54:11;1.55;;;0.60;;
37051;SDS011;22964;52.272;13.356;2022-07-06T10:56:55;0.85;;;0.40;;
37051;SDS011;22964;52.272;13.356;2022-07-06T10:59:33;1.25;;;0.47;;
37051;SDS011;22964;52.272;13.356;2022-07-06T11:02:17;0.38;;;0.38;;
37051;SDS011;22964;52.272;13.356;2022-07-06T11:04:44;1.17;;;0.40;;
37051;SDS011;22964;52.272;13.356;2022-07-06T11:07:20;2.25;;;0.50;;
37051;SDS011;22964;52.272;13.356;2022-07-06T11:09:59;0.40;;;0.38;;
37051;SDS011;22964;52.272;13.356;2022-07-06T11:12:25;1.55;;;0.85;;
37051;SDS011;22964;52.272;13.356;2022-07-06T11:14:51;1.90;;;0.55;;
37051;SDS011;22964;52.272;13.356;2022-07-06T11:17:18;1.23;;;0.47;;
37051;SDS011;22964;52.272;13.356;2022-07-06T11:22:19;1.13;;;0.40;;
37051;SDS011;22964;52.272;13.356;2022-07-06T11:24:45;0.80;;;0.45;;
37051;SDS011;22964;52.272;13.356;2022-07-06T11:27:12;0.52;;;0.32;;
37051;SDS011;22964;52.272;13.356;2022-07-06T11:29:38;2.28;;;0.85;;
37051;SDS011;22964;52.272;13.356;2022-07-06T11:32:05;0.73;;;0.40;;
37051;SDS011;22964;52.272;13.356;2022-07-06T11:34:35;2.08;;;0.60;;
37051;SDS011;22964;52.272;13.356;2022-07-06T11:37:06;4.40;;;0.82;;
37051;SDS011;22964;52.272;13.356;2022-07-06T11:39:35;2.20;;;0.68;;
37051;SDS011;22964;52.272;13.356;2022-07-06T11:42:02;1.08;;;0.50;;
37051;SDS011;22964;52.272;13.356;2022-07-06T11:44:29;1.67;;;0.45;;
37051;SDS011;22964;52.272;13.356;2022-07-06T11:46:56;1.50;;;0.52;;
37051;SDS011;22964;52.272;13.356;2022-07-06T11:49:24;1.58;;;0.60;;
37051;SDS011;22964;52.272;13.356;2022-07-06T11:51:49;2.35;;;0.65;;
37051;SDS011;22964;52.272;13.356;2022-07-06T11:54:16;1.40;;;0.55;;
37051;SDS011;22964;52.272;13.356;2022-07-06T11:56:46;8.23;;;0.80;;
37051;SDS011;22964;52.272;13.356;2022-07-06T11:59:13;2.17;;;0.60;;
37051;SDS011;22964;52.272;13.356;2022-07-06T12:01:41;1.55;;;0.60;;
37051;SDS011;22964;52.272;13.356;2022-07-06T12:04:09;1.70;;;0.70;;
37051;SDS011;22964;52.272;13.356;2022-07-06T12:06:35;2.70;;;0.60;;
37051;SDS011;22964;52.272;13.356;2022-07-06T12:09:02;1.88;;;0.65;;
37051;SDS011;22964;52.272;13.356;2022-07-06T12:11:33;2.53;;;0.65;;
37051;SDS011;22964;52.272;13.356;2022-07-06T12:14:12;1.85;;;0.50;;
37051;SDS011;22964;52.272;13.356;2022-07-06T12:16:39;1.33;;;0.32;;
37051;SDS011;22964;52.272;13.356;2022-07-06T12:19:06;1.38;;;0.47;;
37051;SDS011;22964;52.272;13.356;2022-07-06T12:21:33;0.60;;;0.40;;
37051;SDS011;22964;52.272;13.356;2022-07-06T12:24:00;2.40;;;0.52;;
37051;SDS011;22964;52.272;13.356;2022-07-06T12:26:26;0.65;;;0.50;;
37051;SDS011;22964;52.272;13.356;2022-07-06T12:29:04;1.17;;;0.60;;
37051;SDS011;22964;52.272;13.356;2022-07-06T12:31:37;1.00;;;0.50;;
37051;SDS011;22964;52.272;13.356;2022-07-06T12:34:11;1.43;;;0.50;;
37051;SDS011;22964;52.272;13.356;2022-07-06T12:36:42;0.73;;;0.40;;
37051;SDS011;22964;52.272;13.356;2022-07-06T12:39:15;2.55;;;0.50;;
37051;SDS011;22964;52.272;13.356;2022-07-06T12:41:46;0.93;;;0.50;;
37051;SDS011;22964;52.272;13.356;2022-07-06T12:44:17;1.50;;;0.50;;
37051;SDS011;22964;52.272;13.356;2022-07-06T12:46:44;0.73;;;0.30;;
37051;SDS011;22964;52.272;13.356;2022-07-06T12:51:53;2.00;;;0.50;;
37051;SDS011;22964;52.272;13.356;2022-07-06T12:54:19;1.15;;;0.30;;
37051;SDS011;22964;52.272;13.356;2022-07-06T12:59:45;0.90;;;0.60;;
37051;SDS011;22964;52.272;13.356;2022-07-06T13:04:57;1.48;;;0.40;;
37051;SDS011;22964;52.272;13.356;2022-07-06T13:07:24;0.40;;;0.30;;
37051;SDS011;22964;52.272;13.356;2022-07-06T13:09:51;1.58;;;0.60;;
37051;SDS011;22964;52.272;13.356;2022-07-06T13:12:17;1.75;;;0.50;;
37051;SDS011;22964;52.272;13.356;2022-07-06T13:14:43;0.98;;;0.40;;
37051;SDS011;22964;52.272;13.356;2022-07-06T13:17:09;2.60;;;0.40;;
37051;SDS011;22964;52.272;13.356;2022-07-06T13:19:34;0.70;;;0.40;;
37051;SDS011;22964;52.272;13.356;2022-07-06T13:22:00;2.17;;;0.95;;
37051;SDS011;22964;52.272;13.356;2022-07-06T13:24:26;0.50;;;0.30;;
37051;SDS011;22964;52.272;13.356;2022-07-06T13:26:53;2.30;;;0.45;;
37051;SDS011;22964;52.272;13.356;2022-07-06T13:29:20;2.22;;;0.50;;
37051;SDS011;22964;52.272;13.356;2022-07-06T13:31:45;4.65;;;0.50;;
37051;SDS011;22964;52.272;13.356;2022-07-06T13:34:11;2.47;;;0.60;;
37051;SDS011;22964;52.272;13.356;2022-07-06T13:36:38;1.25;;;0.45;;
37051;SDS011;22964;52.272;13.356;2022-07-06T13:39:04;1.75;;;0.70;;
37051;SDS011;22964;52.272;13.356;2022-07-06T13:41:31;1.27;;;0.52;;
37051;SDS011;22964;52.272;13.356;2022-07-06T13:43:57;2.08;;;0.70;;
37051;SDS011;22964;52.272;13.356;2022-07-06T13:46:23;2.08;;;0.68;;
37051;SDS011;22964;52.272;13.356;2022-07-06T13:48:49;0.93;;;0.68;;
37051;SDS011;22964;52.272;13.356;2022-07-06T13:51:16;1.73;;;0.70;;
37051;SDS011;22964;52.272;13.356;2022-07-06T13:53:42;2.28;;;0.80;;
37051;SDS011;22964;52.272;13.356;2022-07-06T13:56:08;1.08;;;0.52;;
37051;SDS011;22964;52.272;13.356;2022-07-06T13:58:34;2.08;;;0.50;;
37051;SDS011;22964;52.272;13.356;2022-07-06T14:01:00;1.20;;;0.57;;
37051;SDS011;22964;52.272;13.356;2022-07-06T14:03:25;0.80;;;0.60;;
37051;SDS011;22964;52.272;13.356;2022-07-06T14:05:55;1.17;;;0.52;;
37051;SDS011;22964;52.272;13.356;2022-07-06T14:08:25;0.82;;;0.43;;
37051;SDS011;22964;52.272;13.356;2022-07-06T14:10:51;1.15;;;0.40;;
37051;SDS011;22964;52.272;13.356;2022-07-06T14:13:18;1.38;;;0.50;;
37051;SDS011;22964;52.272;13.356;2022-07-06T14:15:44;1.38;;;0.47;;
37051;SDS011;22964;52.272;13.356;2022-07-06T14:18:10;1.30;;;0.40;;
37051;SDS011;22964;52.272;13.356;2022-07-06T14:20:36;1.92;;;0.47;;
37051;SDS011;22964;52.272;13.356;2022-07-06T14:23:02;2.85;;;0.60;;
37051;SDS011;22964;52.272;13.356;2022-07-06T14:25:27;0.90;;;0.65;;
37051;SDS011;22964;52.272;13.356;2022-07-06T14:27:53;0.50;;;0.40;;
37051;SDS011;22964;52.272;13.356;2022-07-06T14:30:19;0.68;;;0.50;;
37051;SDS011;22964;52.272;13.356;2022-07-06T14:32:44;1.02;;;0.50;;
37051;SDS011;22964;52.272;13.356;2022-07-06T14:35:11;3.00;;;0.50;;
37051;SDS011;22964;52.272;13.356;2022-07-06T14:37:37;2.30;;;0.70;;
37051;SDS011;22964;52.272;13.356;2022-07-06T14:40:03;0.95;;;0.60;;
37051;SDS011;22964;52.272;13.356;2022-07-06T14:42:29;1.02;;;0.70;;
37051;SDS011;22964;52.272;13.356;2022-07-06T14:44:55;1.42;;;0.60;;
37051;SDS011;22964;52.272;13.356;2022-07-06T14:47:21;1.30;;;0.60;;